DLH715 RJTT-EDDM
Flight info
| Callsign | DLH715 |
|---|---|
| Flight time | N/A |
| Altitude | 35000 |
| Route | INUBO Y808 PUTER A590 PASRO/N0487F370 A590 POWAL DCT OPAKE DCT MARCC DCT JUJXI DCT 74N160W/N0495F390 DCT NAMWE DCT 83N130W 84N120W 85N100W 85N080W DCT PELRI/M084F390 DCT 83N020W 78N000W/N0496F410 DCT NORVA DCT TEVMI DCT BINTU DCT SOMUB DCT LILBA DCT VATEX DCT LOMPU DCT BUMIL DCT EMBOX DCT ALOSO T703 SODRO/N0453F310 T703 LULAR/N0447F300 T105 LANDU LANDU2B |
| Aircraft | A359/H-SADE2E3GHIJ1J2J3J4J5M1P2RWXYZ/LB1D1 |
Departure
| Time | N/A |
|---|---|
| Airport | Tokyo Haneda International Airport (RJTT) |
Arrival
| Time | 2026-05-05 18:21 |
|---|---|
| Airport | Munich Airport (EDDM) |
| Time | Latitude | Longitude | Altitude | Speed | Heading |
|---|---|---|---|---|---|
| 2026-05-05 15:32 | 69.70551 | 9.91484 | 40764 ft | 523 kts | 166° |
| 2026-05-05 15:32 | 69.63478 | 9.96427 | 40760 ft | 523 kts | 166° |
| 2026-05-05 15:33 | 69.56464 | 10.01297 | 40761 ft | 522 kts | 166° |
| 2026-05-05 15:33 | 69.49394 | 10.06170 | 40752 ft | 523 kts | 166° |
| 2026-05-05 15:34 | 69.42318 | 10.11016 | 40761 ft | 523 kts | 166° |
| 2026-05-05 15:34 | 69.35238 | 10.15833 | 40753 ft | 523 kts | 166° |
| 2026-05-05 15:35 | 69.28165 | 10.20614 | 40740 ft | 522 kts | 167° |
| 2026-05-05 15:35 | 69.21102 | 10.25353 | 40735 ft | 522 kts | 167° |
| 2026-05-05 15:36 | 69.14025 | 10.30067 | 40736 ft | 522 kts | 167° |
| 2026-05-05 15:36 | 69.06955 | 10.34749 | 40737 ft | 522 kts | 167° |
| 2026-05-05 15:37 | 68.99895 | 10.39393 | 40734 ft | 522 kts | 167° |
| 2026-05-05 15:37 | 68.92824 | 10.44014 | 40722 ft | 522 kts | 167° |
| 2026-05-05 15:38 | 68.85749 | 10.48607 | 40718 ft | 522 kts | 167° |
| 2026-05-05 15:38 | 68.78674 | 10.53170 | 40727 ft | 521 kts | 167° |
| 2026-05-05 15:39 | 68.71611 | 10.57696 | 40725 ft | 522 kts | 167° |
| 2026-05-05 15:39 | 68.64581 | 10.62171 | 40716 ft | 522 kts | 167° |
| 2026-05-05 15:40 | 68.57499 | 10.66650 | 40712 ft | 522 kts | 168° |
| 2026-05-05 15:40 | 68.50415 | 10.71102 | 40711 ft | 522 kts | 168° |
| 2026-05-05 15:41 | 68.43343 | 10.75518 | 40712 ft | 521 kts | 168° |
| 2026-05-05 15:41 | 68.36268 | 10.79907 | 40714 ft | 522 kts | 168° |
| 2026-05-05 15:42 | 68.29189 | 10.84271 | 40703 ft | 522 kts | 168° |
| 2026-05-05 15:42 | 68.22118 | 10.88603 | 40700 ft | 521 kts | 168° |
| 2026-05-05 15:43 | 68.15047 | 10.92908 | 40696 ft | 521 kts | 169° |
| 2026-05-05 15:43 | 68.07974 | 10.97171 | 40696 ft | 521 kts | 169° |
| 2026-05-05 15:44 | 68.00855 | 11.00877 | 40697 ft | 521 kts | 171° |
| 2026-05-05 15:44 | 67.93751 | 11.04294 | 40691 ft | 520 kts | 171° |
| 2026-05-05 15:45 | 67.86627 | 11.07765 | 40692 ft | 521 kts | 171° |
| 2026-05-05 15:45 | 67.79496 | 11.11288 | 40690 ft | 521 kts | 171° |
| 2026-05-05 15:46 | 67.72371 | 11.14809 | 40688 ft | 521 kts | 170° |
| 2026-05-05 15:46 | 67.65247 | 11.18311 | 40686 ft | 521 kts | 171° |
| 2026-05-05 15:47 | 67.58114 | 11.21791 | 40672 ft | 521 kts | 171° |
| 2026-05-05 15:47 | 67.50989 | 11.25244 | 40674 ft | 520 kts | 171° |
| 2026-05-05 15:48 | 67.43873 | 11.28673 | 40671 ft | 520 kts | 171° |
| 2026-05-05 15:48 | 67.36754 | 11.32082 | 40676 ft | 520 kts | 172° |
| 2026-05-05 15:49 | 67.29635 | 11.35469 | 40675 ft | 520 kts | 171° |
| 2026-05-05 15:49 | 67.22519 | 11.38835 | 40661 ft | 520 kts | 171° |
| 2026-05-05 15:50 | 67.15471 | 11.42154 | 40656 ft | 510 kts | 172° |
| 2026-05-05 15:50 | 67.09692 | 11.44859 | 40647 ft | 507 kts | 172° |
| 2026-05-05 15:51 | 67.02744 | 11.48087 | 40651 ft | 507 kts | 172° |
| 2026-05-05 15:51 | 66.94682 | 11.51813 | 40655 ft | 507 kts | 171° |
| 2026-05-05 15:52 | 66.87740 | 11.55002 | 40644 ft | 507 kts | 172° |
| 2026-05-05 15:52 | 66.80792 | 11.58174 | 40650 ft | 507 kts | 172° |
| 2026-05-05 15:53 | 66.74973 | 11.60818 | 40643 ft | 506 kts | 172° |
| 2026-05-05 15:53 | 66.68045 | 11.63951 | 40645 ft | 505 kts | 171° |
| 2026-05-05 15:54 | 66.61123 | 11.67063 | 40646 ft | 505 kts | 171° |
| 2026-05-05 15:54 | 66.54213 | 11.70150 | 40642 ft | 504 kts | 171° |
| 2026-05-05 15:55 | 66.47358 | 11.73196 | 40640 ft | 504 kts | 172° |
| 2026-05-05 15:55 | 66.40439 | 11.76253 | 40646 ft | 505 kts | 172° |
| 2026-05-05 15:56 | 66.33522 | 11.79292 | 40646 ft | 505 kts | 172° |
| 2026-05-05 15:56 | 66.26598 | 11.82317 | 40661 ft | 505 kts | 172° |
| 2026-05-05 15:57 | 66.19645 | 11.84310 | 40663 ft | 502 kts | 179° |
| 2026-05-05 15:57 | 66.12664 | 11.84755 | 40675 ft | 502 kts | 181° |
| 2026-05-05 15:58 | 66.05684 | 11.84935 | 40675 ft | 501 kts | 182° |
| 2026-05-05 15:58 | 65.98710 | 11.85112 | 40691 ft | 501 kts | 182° |
| 2026-05-05 15:59 | 65.91733 | 11.85326 | 40708 ft | 501 kts | 182° |
| 2026-05-05 15:59 | 65.84755 | 11.85559 | 40708 ft | 501 kts | 182° |
| 2026-05-05 16:00 | 65.77780 | 11.85793 | 40718 ft | 501 kts | 182° |
| 2026-05-05 16:00 | 65.70799 | 11.86023 | 40733 ft | 501 kts | 181° |
| 2026-05-05 16:01 | 65.63821 | 11.86254 | 40748 ft | 502 kts | 182° |
| 2026-05-05 16:01 | 65.56848 | 11.86480 | 40746 ft | 501 kts | 181° |
| 2026-05-05 16:02 | 65.49872 | 11.86707 | 40759 ft | 501 kts | 181° |
| 2026-05-05 16:02 | 65.42903 | 11.86933 | 40754 ft | 501 kts | 181° |
| 2026-05-05 16:03 | 65.35929 | 11.87155 | 40766 ft | 501 kts | 181° |
| 2026-05-05 16:03 | 65.28957 | 11.87378 | 40766 ft | 501 kts | 182° |
| 2026-05-05 16:04 | 65.21986 | 11.87600 | 40775 ft | 501 kts | 182° |
| 2026-05-05 16:04 | 65.15014 | 11.87820 | 40777 ft | 501 kts | 181° |
| 2026-05-05 16:05 | 65.08045 | 11.88039 | 40790 ft | 501 kts | 181° |
| 2026-05-05 16:05 | 65.01076 | 11.88257 | 40800 ft | 501 kts | 181° |
| 2026-05-05 16:06 | 64.94105 | 11.88244 | 40797 ft | 500 kts | 184° |
| 2026-05-05 16:06 | 64.87155 | 11.87792 | 40804 ft | 500 kts | 184° |
| 2026-05-05 16:07 | 64.80200 | 11.87335 | 40799 ft | 500 kts | 184° |
| 2026-05-05 16:07 | 64.73241 | 11.86956 | 40811 ft | 500 kts | 184° |
| 2026-05-05 16:08 | 64.66284 | 11.86614 | 40817 ft | 500 kts | 184° |
| 2026-05-05 16:08 | 64.59325 | 11.86281 | 40825 ft | 500 kts | 184° |
| 2026-05-05 16:09 | 64.52415 | 11.85948 | 40829 ft | 500 kts | 184° |
| 2026-05-05 16:09 | 64.45457 | 11.85613 | 40825 ft | 500 kts | 184° |
| 2026-05-05 16:10 | 64.38497 | 11.85279 | 40830 ft | 500 kts | 184° |
| 2026-05-05 16:10 | 64.31533 | 11.84947 | 40828 ft | 500 kts | 184° |
| 2026-05-05 16:11 | 64.24575 | 11.84618 | 40835 ft | 500 kts | 184° |
| 2026-05-05 16:12 | 64.10646 | 11.83959 | 40845 ft | 500 kts | 184° |
| 2026-05-05 16:13 | 63.93252 | 11.83148 | 40850 ft | 499 kts | 184° |
| 2026-05-05 16:13 | 63.86306 | 11.82828 | 40841 ft | 499 kts | 184° |
| 2026-05-05 16:14 | 63.72429 | 11.82191 | 40872 ft | 499 kts | 184° |
| 2026-05-05 16:15 | 63.58550 | 11.81560 | 40877 ft | 499 kts | 184° |
| 2026-05-05 16:16 | 63.44684 | 11.80937 | 40876 ft | 498 kts | 184° |
| 2026-05-05 16:17 | 63.34446 | 11.80479 | 40880 ft | 498 kts | 184° |
| 2026-05-05 16:18 | 63.24045 | 11.80184 | 40870 ft | 498 kts | 184° |
| 2026-05-05 16:19 | 63.13639 | 11.79958 | 40886 ft | 498 kts | 184° |
| 2026-05-05 16:19 | 63.03236 | 11.79704 | 40887 ft | 498 kts | 184° |
| 2026-05-05 16:20 | 62.89367 | 11.79359 | 40884 ft | 498 kts | 184° |
| 2026-05-05 16:22 | 62.72036 | 11.78932 | 40850 ft | 498 kts | 184° |
| 2026-05-05 16:23 | 62.58216 | 11.78597 | 40838 ft | 498 kts | 184° |
| 2026-05-05 16:23 | 62.47831 | 11.78347 | 40881 ft | 497 kts | 184° |
| 2026-05-05 16:24 | 62.40908 | 11.78180 | 40873 ft | 497 kts | 184° |
| 2026-05-05 16:25 | 62.30527 | 11.77933 | 40863 ft | 497 kts | 185° |
| 2026-05-05 16:25 | 62.20169 | 11.77687 | 40874 ft | 496 kts | 185° |
| 2026-05-05 16:26 | 62.06359 | 11.77363 | 40876 ft | 496 kts | 185° |
| 2026-05-05 16:27 | 61.99516 | 11.77204 | 40863 ft | 496 kts | 185° |
| 2026-05-05 16:27 | 61.92620 | 11.77044 | 40867 ft | 495 kts | 185° |
| 2026-05-05 16:28 | 61.85727 | 11.76884 | 40862 ft | 495 kts | 185° |
| 2026-05-05 16:28 | 61.78836 | 11.76725 | 40859 ft | 495 kts | 185° |
| 2026-05-05 16:29 | 61.71943 | 11.76567 | 40829 ft | 495 kts | 185° |
| 2026-05-05 16:29 | 61.65052 | 11.76410 | 40851 ft | 495 kts | 185° |
| 2026-05-05 16:30 | 61.58168 | 11.76253 | 40856 ft | 495 kts | 185° |
| 2026-05-05 16:30 | 61.51278 | 11.76098 | 40853 ft | 495 kts | 185° |
| 2026-05-05 16:31 | 61.44395 | 11.75943 | 40854 ft | 495 kts | 185° |
| 2026-05-05 16:31 | 61.37508 | 11.75789 | 40850 ft | 495 kts | 185° |
| 2026-05-05 16:32 | 61.30683 | 11.75636 | 40854 ft | 494 kts | 185° |
| 2026-05-05 16:32 | 61.23816 | 11.75484 | 40854 ft | 494 kts | 185° |
| 2026-05-05 16:33 | 61.16945 | 11.75332 | 40860 ft | 494 kts | 185° |
| 2026-05-05 16:33 | 61.10076 | 11.75181 | 40858 ft | 494 kts | 185° |
| 2026-05-05 16:34 | 61.03207 | 11.75031 | 40857 ft | 494 kts | 185° |
| 2026-05-05 16:34 | 60.96342 | 11.74882 | 40857 ft | 494 kts | 185° |
| 2026-05-05 16:35 | 60.89469 | 11.74731 | 40839 ft | 494 kts | 185° |
| 2026-05-05 16:35 | 60.82602 | 11.74583 | 40856 ft | 493 kts | 185° |
| 2026-05-05 16:36 | 60.75734 | 11.74733 | 40862 ft | 493 kts | 183° |
| 2026-05-05 16:36 | 60.68887 | 11.75194 | 40867 ft | 492 kts | 183° |
| 2026-05-05 16:37 | 60.62045 | 11.75629 | 40867 ft | 492 kts | 183° |
| 2026-05-05 16:37 | 60.55201 | 11.76004 | 40852 ft | 492 kts | 184° |
| 2026-05-05 16:38 | 60.48366 | 11.76351 | 40853 ft | 491 kts | 184° |
| 2026-05-05 16:38 | 60.41538 | 11.76694 | 40863 ft | 490 kts | 184° |
| 2026-05-05 16:39 | 60.34727 | 11.77034 | 40859 ft | 490 kts | 184° |
| 2026-05-05 16:39 | 60.29065 | 11.77317 | 40857 ft | 490 kts | 184° |
| 2026-05-05 16:40 | 60.22248 | 11.77655 | 40837 ft | 490 kts | 185° |
| 2026-05-05 16:40 | 60.15439 | 11.77943 | 40864 ft | 489 kts | 185° |
| 2026-05-05 16:41 | 60.08640 | 11.78270 | 40867 ft | 489 kts | 184° |
| 2026-05-05 16:41 | 60.01839 | 11.78647 | 40867 ft | 489 kts | 184° |
| 2026-05-05 16:42 | 59.95045 | 11.79004 | 40867 ft | 489 kts | 184° |
| 2026-05-05 16:42 | 59.88246 | 11.79343 | 40867 ft | 488 kts | 184° |
| 2026-05-05 16:43 | 59.81467 | 11.79674 | 40871 ft | 487 kts | 184° |
| 2026-05-05 16:43 | 59.74695 | 11.80002 | 40881 ft | 487 kts | 184° |
| 2026-05-05 16:44 | 59.67921 | 11.80329 | 40879 ft | 487 kts | 184° |
| 2026-05-05 16:44 | 59.61151 | 11.80655 | 40875 ft | 487 kts | 184° |
| 2026-05-05 16:45 | 59.54390 | 11.80982 | 40884 ft | 485 kts | 184° |
| 2026-05-05 16:45 | 59.47644 | 11.81305 | 40892 ft | 485 kts | 184° |
| 2026-05-05 16:46 | 59.40901 | 11.81626 | 40891 ft | 485 kts | 184° |
| 2026-05-05 16:46 | 59.34155 | 11.81946 | 40873 ft | 484 kts | 184° |
| 2026-05-05 16:47 | 59.27507 | 11.81447 | 40906 ft | 480 kts | 189° |
| 2026-05-05 16:47 | 59.20849 | 11.80503 | 40906 ft | 479 kts | 189° |
| 2026-05-05 16:48 | 59.14198 | 11.79489 | 40918 ft | 479 kts | 189° |
| 2026-05-05 16:48 | 59.07548 | 11.78490 | 40917 ft | 480 kts | 189° |
| 2026-05-05 16:49 | 59.00896 | 11.77512 | 40925 ft | 479 kts | 189° |
| 2026-05-05 16:49 | 58.94255 | 11.76545 | 40925 ft | 478 kts | 189° |
| 2026-05-05 16:50 | 58.87613 | 11.75580 | 40917 ft | 478 kts | 189° |
| 2026-05-05 16:50 | 58.80974 | 11.74621 | 40924 ft | 478 kts | 189° |
| 2026-05-05 16:51 | 58.74335 | 11.73665 | 40929 ft | 479 kts | 189° |
| 2026-05-05 16:51 | 58.67689 | 11.72711 | 40933 ft | 479 kts | 189° |
| 2026-05-05 16:52 | 58.61047 | 11.71761 | 40935 ft | 479 kts | 189° |
| 2026-05-05 16:52 | 58.54403 | 11.70814 | 40934 ft | 479 kts | 189° |
| 2026-05-05 16:53 | 58.47766 | 11.69873 | 40919 ft | 479 kts | 189° |
| 2026-05-05 16:53 | 58.41117 | 11.68933 | 40935 ft | 479 kts | 189° |
| 2026-05-05 16:54 | 58.34469 | 11.67997 | 40935 ft | 479 kts | 189° |
| 2026-05-05 16:54 | 58.27823 | 11.67064 | 40942 ft | 479 kts | 189° |
| 2026-05-05 16:55 | 58.21171 | 11.66134 | 40941 ft | 479 kts | 189° |
| 2026-05-05 16:55 | 58.14567 | 11.65216 | 40939 ft | 479 kts | 189° |
| 2026-05-05 16:56 | 58.07921 | 11.64294 | 40942 ft | 479 kts | 189° |
| 2026-05-05 16:56 | 58.01227 | 11.63368 | 40942 ft | 479 kts | 189° |
| 2026-05-05 16:57 | 57.94579 | 11.62452 | 40909 ft | 479 kts | 189° |
| 2026-05-05 16:57 | 57.87977 | 11.61548 | 40941 ft | 478 kts | 189° |
| 2026-05-05 16:58 | 57.81343 | 11.60643 | 40941 ft | 478 kts | 189° |
| 2026-05-05 16:58 | 57.74709 | 11.59740 | 40940 ft | 478 kts | 189° |
| 2026-05-05 16:59 | 57.68217 | 11.58859 | 40943 ft | 478 kts | 189° |
| 2026-05-05 16:59 | 57.61625 | 11.57968 | 40951 ft | 477 kts | 189° |
| 2026-05-05 17:00 | 57.55074 | 11.57087 | 40951 ft | 477 kts | 189° |
| 2026-05-05 17:00 | 57.48457 | 11.56199 | 40968 ft | 477 kts | 189° |
| 2026-05-05 17:01 | 57.41879 | 11.55319 | 40957 ft | 477 kts | 189° |
| 2026-05-05 17:01 | 57.35357 | 11.54450 | 40952 ft | 477 kts | 188° |
| 2026-05-05 17:02 | 57.28739 | 11.53571 | 40954 ft | 477 kts | 188° |
| 2026-05-05 17:02 | 57.22115 | 11.52695 | 40954 ft | 477 kts | 188° |
| 2026-05-05 17:03 | 57.15491 | 11.51822 | 40954 ft | 477 kts | 188° |
| 2026-05-05 17:03 | 57.08909 | 11.50958 | 40951 ft | 477 kts | 188° |
| 2026-05-05 17:04 | 57.02284 | 11.50091 | 40958 ft | 478 kts | 188° |
| 2026-05-05 17:04 | 56.95651 | 11.49226 | 40959 ft | 478 kts | 188° |
| 2026-05-05 17:05 | 56.89022 | 11.48365 | 40958 ft | 478 kts | 188° |
| 2026-05-05 17:05 | 56.82391 | 11.47506 | 40952 ft | 478 kts | 188° |
| 2026-05-05 17:06 | 56.75766 | 11.46652 | 40958 ft | 477 kts | 188° |
| 2026-05-05 17:06 | 56.69145 | 11.45801 | 40958 ft | 477 kts | 188° |
| 2026-05-05 17:07 | 56.62527 | 11.44953 | 40955 ft | 477 kts | 188° |
| 2026-05-05 17:07 | 56.55905 | 11.44107 | 40947 ft | 477 kts | 188° |
| 2026-05-05 17:08 | 56.49284 | 11.43265 | 40955 ft | 476 kts | 188° |
| 2026-05-05 17:08 | 56.42679 | 11.42428 | 40952 ft | 476 kts | 188° |
| 2026-05-05 17:09 | 56.36064 | 11.41593 | 40953 ft | 476 kts | 188° |
| 2026-05-05 17:09 | 56.29503 | 11.40766 | 40937 ft | 476 kts | 188° |
| 2026-05-05 17:10 | 56.23117 | 11.39966 | 40954 ft | 475 kts | 188° |
| 2026-05-05 17:10 | 56.16527 | 11.39142 | 40954 ft | 475 kts | 188° |
| 2026-05-05 17:11 | 56.09936 | 11.38321 | 40948 ft | 475 kts | 188° |
| 2026-05-05 17:11 | 56.03345 | 11.37502 | 40933 ft | 475 kts | 188° |
| 2026-05-05 17:12 | 55.96756 | 11.36687 | 40956 ft | 474 kts | 188° |
| 2026-05-05 17:12 | 55.90166 | 11.35874 | 40942 ft | 474 kts | 188° |
| 2026-05-05 17:13 | 55.83583 | 11.35065 | 40944 ft | 474 kts | 188° |
| 2026-05-05 17:13 | 55.77006 | 11.34260 | 40917 ft | 474 kts | 188° |
| 2026-05-05 17:14 | 55.70430 | 11.33457 | 40943 ft | 474 kts | 188° |
| 2026-05-05 17:14 | 55.63857 | 11.32657 | 40944 ft | 474 kts | 188° |
| 2026-05-05 17:15 | 55.57323 | 11.31864 | 40942 ft | 474 kts | 188° |
| 2026-05-05 17:15 | 55.50751 | 11.31070 | 40941 ft | 473 kts | 188° |
| 2026-05-05 17:16 | 55.44200 | 11.30281 | 40936 ft | 474 kts | 188° |
| 2026-05-05 17:16 | 55.37623 | 11.29492 | 40937 ft | 474 kts | 188° |
| 2026-05-05 17:17 | 55.31049 | 11.28706 | 40930 ft | 474 kts | 188° |
| 2026-05-05 17:17 | 55.24476 | 11.27922 | 40922 ft | 474 kts | 188° |
| 2026-05-05 17:18 | 55.17896 | 11.27139 | 40931 ft | 474 kts | 187° |
| 2026-05-05 17:18 | 55.11323 | 11.26360 | 40924 ft | 474 kts | 187° |
| 2026-05-05 17:19 | 55.04790 | 11.25590 | 40923 ft | 474 kts | 187° |
| 2026-05-05 17:19 | 54.98214 | 11.24816 | 40915 ft | 474 kts | 187° |
| 2026-05-05 17:20 | 54.91638 | 11.24045 | 40928 ft | 473 kts | 187° |
| 2026-05-05 17:20 | 54.85062 | 11.23276 | 40918 ft | 473 kts | 187° |
| 2026-05-05 17:21 | 54.78489 | 11.22510 | 40923 ft | 473 kts | 187° |
| 2026-05-05 17:22 | 54.68630 | 11.21366 | 40921 ft | 473 kts | 187° |
| 2026-05-05 17:22 | 54.62058 | 11.20606 | 40924 ft | 473 kts | 187° |
| 2026-05-05 17:23 | 54.55447 | 11.20493 | 40923 ft | 476 kts | 182° |
| 2026-05-05 17:23 | 54.48824 | 11.20834 | 40919 ft | 476 kts | 182° |
| 2026-05-05 17:24 | 54.42202 | 11.21248 | 40919 ft | 476 kts | 182° |
| 2026-05-05 17:24 | 54.35590 | 11.21653 | 40919 ft | 476 kts | 182° |
| 2026-05-05 17:25 | 54.28971 | 11.22041 | 40919 ft | 475 kts | 182° |
| 2026-05-05 17:25 | 54.22357 | 11.22422 | 40905 ft | 475 kts | 182° |
| 2026-05-05 17:26 | 54.15801 | 11.22798 | 40917 ft | 474 kts | 182° |
| 2026-05-05 17:26 | 54.09224 | 11.23174 | 40914 ft | 474 kts | 182° |
| 2026-05-05 17:27 | 54.02630 | 11.23551 | 40914 ft | 474 kts | 182° |
| 2026-05-05 17:27 | 53.96045 | 11.23925 | 40893 ft | 474 kts | 182° |
| 2026-05-05 17:28 | 53.89463 | 11.24300 | 40904 ft | 473 kts | 182° |
| 2026-05-05 17:28 | 53.82892 | 11.24672 | 40906 ft | 472 kts | 182° |
| 2026-05-05 17:29 | 53.76319 | 11.25043 | 40904 ft | 472 kts | 182° |
| 2026-05-05 17:29 | 53.69749 | 11.25412 | 40889 ft | 472 kts | 181° |
| 2026-05-05 17:30 | 53.64281 | 11.25718 | 40903 ft | 473 kts | 181° |
| 2026-05-05 17:30 | 53.57701 | 11.26086 | 40897 ft | 473 kts | 181° |
| 2026-05-05 17:31 | 53.51118 | 11.26453 | 40889 ft | 473 kts | 181° |
| 2026-05-05 17:31 | 53.44532 | 11.26819 | 40880 ft | 473 kts | 181° |
| 2026-05-05 17:32 | 53.37938 | 11.27184 | 40884 ft | 474 kts | 181° |
| 2026-05-05 17:32 | 53.31347 | 11.27549 | 40884 ft | 474 kts | 181° |
| 2026-05-05 17:33 | 53.24838 | 11.27907 | 40881 ft | 474 kts | 181° |
| 2026-05-05 17:33 | 53.18896 | 11.28234 | 40871 ft | 474 kts | 181° |
| 2026-05-05 17:34 | 53.12311 | 11.28595 | 40877 ft | 473 kts | 182° |
| 2026-05-05 17:34 | 53.05724 | 11.28984 | 40872 ft | 474 kts | 181° |
| 2026-05-05 17:35 | 52.99140 | 11.29391 | 40873 ft | 474 kts | 181° |
| 2026-05-05 17:35 | 52.92555 | 11.29797 | 40869 ft | 473 kts | 181° |
| 2026-05-05 17:36 | 52.85972 | 11.30198 | 40865 ft | 473 kts | 181° |
| 2026-05-05 17:36 | 52.79388 | 11.30605 | 40861 ft | 473 kts | 181° |
| 2026-05-05 17:37 | 52.72802 | 11.31024 | 40864 ft | 473 kts | 181° |
| 2026-05-05 17:37 | 52.66223 | 11.31406 | 40860 ft | 473 kts | 181° |
| 2026-05-05 17:38 | 52.59656 | 11.31786 | 40855 ft | 472 kts | 181° |
| 2026-05-05 17:38 | 52.53087 | 11.32173 | 40855 ft | 472 kts | 181° |
| 2026-05-05 17:39 | 52.46518 | 11.32564 | 40846 ft | 472 kts | 181° |
| 2026-05-05 17:39 | 52.39962 | 11.32955 | 40849 ft | 471 kts | 181° |
| 2026-05-05 17:40 | 52.33416 | 11.33343 | 40848 ft | 470 kts | 181° |
| 2026-05-05 17:40 | 52.26880 | 11.33729 | 40844 ft | 470 kts | 181° |
| 2026-05-05 17:41 | 52.20337 | 11.34114 | 40829 ft | 470 kts | 181° |
| 2026-05-05 17:41 | 52.13812 | 11.34497 | 40838 ft | 469 kts | 181° |
| 2026-05-05 17:42 | 52.07299 | 11.34899 | 40821 ft | 469 kts | 179° |
| 2026-05-05 17:42 | 52.00804 | 11.36262 | 40825 ft | 471 kts | 174° |
| 2026-05-05 17:43 | 51.94373 | 11.37958 | 40827 ft | 472 kts | 174° |
| 2026-05-05 17:43 | 51.87901 | 11.39719 | 40831 ft | 471 kts | 174° |
| 2026-05-05 17:44 | 51.81432 | 11.41461 | 40825 ft | 471 kts | 174° |
| 2026-05-05 17:44 | 51.74960 | 11.43182 | 40830 ft | 471 kts | 174° |
| 2026-05-05 17:45 | 51.68496 | 11.44892 | 40820 ft | 471 kts | 174° |
| 2026-05-05 17:45 | 51.62033 | 11.46596 | 40819 ft | 470 kts | 174° |
| 2026-05-05 17:46 | 51.55576 | 11.48295 | 40819 ft | 470 kts | 174° |
| 2026-05-05 17:46 | 51.49120 | 11.49988 | 40812 ft | 470 kts | 174° |
| 2026-05-05 17:47 | 51.42665 | 11.51676 | 40812 ft | 469 kts | 173° |
| 2026-05-05 17:47 | 51.36221 | 11.53357 | 40807 ft | 469 kts | 173° |
| 2026-05-05 17:48 | 51.29784 | 11.55031 | 40800 ft | 469 kts | 174° |
| 2026-05-05 17:48 | 51.23333 | 11.56704 | 40793 ft | 469 kts | 174° |
| 2026-05-05 17:49 | 51.16887 | 11.58371 | 40801 ft | 469 kts | 174° |
| 2026-05-05 17:49 | 51.10448 | 11.60031 | 40793 ft | 469 kts | 174° |
| 2026-05-05 17:50 | 51.04007 | 11.61687 | 40778 ft | 469 kts | 174° |
| 2026-05-05 17:50 | 50.97568 | 11.63339 | 40779 ft | 469 kts | 174° |
| 2026-05-05 17:51 | 50.91129 | 11.64985 | 40776 ft | 468 kts | 174° |
| 2026-05-05 17:51 | 50.84703 | 11.66624 | 40772 ft | 468 kts | 174° |
| 2026-05-05 17:52 | 50.78271 | 11.68259 | 40775 ft | 468 kts | 174° |
| 2026-05-05 17:52 | 50.71849 | 11.69954 | 40753 ft | 469 kts | 171° |
| 2026-05-05 17:53 | 50.65568 | 11.72806 | 40759 ft | 470 kts | 166° |
| 2026-05-05 17:53 | 50.59345 | 11.76012 | 40763 ft | 471 kts | 165° |
| 2026-05-05 17:54 | 50.53119 | 11.79271 | 40757 ft | 471 kts | 165° |
| 2026-05-05 17:54 | 50.46950 | 11.82540 | 40762 ft | 473 kts | 162° |
| 2026-05-05 17:55 | 50.40867 | 11.86495 | 40771 ft | 474 kts | 160° |
| 2026-05-05 17:55 | 50.34814 | 11.90585 | 40771 ft | 474 kts | 160° |
| 2026-05-05 17:56 | 50.28769 | 11.94686 | 40775 ft | 473 kts | 160° |
| 2026-05-05 17:56 | 50.22721 | 11.98770 | 40768 ft | 473 kts | 160° |
| 2026-05-05 17:57 | 50.16697 | 12.02822 | 40767 ft | 472 kts | 160° |
| 2026-05-05 17:57 | 50.10645 | 12.06877 | 40742 ft | 474 kts | 160° |
| 2026-05-05 17:58 | 50.04596 | 12.10925 | 40281 ft | 472 kts | 160° |
| 2026-05-05 17:58 | 50.01587 | 12.12935 | 39702 ft | 470 kts | 160° |
| 2026-05-05 17:58 | 49.98595 | 12.14925 | 39114 ft | 468 kts | 160° |
| 2026-05-05 17:58 | 49.95601 | 12.16912 | 38549 ft | 466 kts | 160° |
| 2026-05-05 17:59 | 49.92626 | 12.18884 | 37878 ft | 464 kts | 160° |
| 2026-05-05 17:59 | 49.89665 | 12.20844 | 37178 ft | 462 kts | 160° |
| 2026-05-05 17:59 | 49.86703 | 12.22802 | 36504 ft | 463 kts | 159° |
| 2026-05-05 17:59 | 49.83740 | 12.24758 | 35866 ft | 464 kts | 159° |
| 2026-05-05 18:00 | 49.80760 | 12.26724 | 35232 ft | 466 kts | 159° |
| 2026-05-05 18:00 | 49.77776 | 12.28690 | 34613 ft | 466 kts | 159° |
| 2026-05-05 18:00 | 49.74798 | 12.30663 | 33985 ft | 465 kts | 158° |
| 2026-05-05 18:00 | 49.71832 | 12.32584 | 33286 ft | 461 kts | 163° |
| 2026-05-05 18:01 | 49.68799 | 12.33935 | 32510 ft | 459 kts | 168° |
| 2026-05-05 18:01 | 49.65642 | 12.35020 | 31724 ft | 458 kts | 170° |
| 2026-05-05 18:01 | 49.62516 | 12.35933 | 30985 ft | 457 kts | 171° |
| 2026-05-05 18:01 | 49.59388 | 12.36784 | 30253 ft | 455 kts | 171° |
| 2026-05-05 18:02 | 49.56273 | 12.37623 | 29516 ft | 453 kts | 171° |
| 2026-05-05 18:02 | 49.53176 | 12.38473 | 28708 ft | 451 kts | 171° |
| 2026-05-05 18:02 | 49.50097 | 12.39336 | 27975 ft | 448 kts | 171° |
| 2026-05-05 18:02 | 49.47041 | 12.40209 | 27309 ft | 444 kts | 170° |
| 2026-05-05 18:03 | 49.44024 | 12.41080 | 26659 ft | 439 kts | 170° |
| 2026-05-05 18:03 | 49.41037 | 12.41947 | 26026 ft | 435 kts | 170° |
| 2026-05-05 18:03 | 49.38084 | 12.42810 | 25408 ft | 430 kts | 170° |
| 2026-05-05 18:03 | 49.35154 | 12.43666 | 24796 ft | 426 kts | 170° |
| 2026-05-05 18:04 | 49.32253 | 12.44511 | 24204 ft | 422 kts | 170° |
| 2026-05-05 18:04 | 49.29383 | 12.45244 | 23633 ft | 413 kts | 174° |
| 2026-05-05 18:04 | 49.26589 | 12.45405 | 23008 ft | 392 kts | 182° |
| 2026-05-05 18:04 | 49.23924 | 12.45093 | 22333 ft | 378 kts | 187° |
| 2026-05-05 18:05 | 49.21369 | 12.44545 | 21689 ft | 375 kts | 189° |
| 2026-05-05 18:05 | 49.18805 | 12.43900 | 21054 ft | 372 kts | 190° |
| 2026-05-05 18:05 | 49.16259 | 12.43239 | 20421 ft | 370 kts | 190° |
| 2026-05-05 18:05 | 49.13728 | 12.42602 | 19803 ft | 368 kts | 189° |
| 2026-05-05 18:06 | 49.11203 | 12.41994 | 19215 ft | 367 kts | 189° |
| 2026-05-05 18:06 | 49.10353 | 12.41794 | 19017 ft | 367 kts | 189° |
| 2026-05-05 18:06 | 49.06192 | 12.40849 | 18031 ft | 361 kts | 189° |
| 2026-05-05 18:06 | 49.03719 | 12.40301 | 17365 ft | 357 kts | 189° |
| 2026-05-05 18:07 | 49.01270 | 12.39762 | 16716 ft | 353 kts | 189° |
| 2026-05-05 18:07 | 48.98857 | 12.39232 | 16074 ft | 349 kts | 189° |
| 2026-05-05 18:07 | 48.96465 | 12.38706 | 15424 ft | 346 kts | 189° |
| 2026-05-05 18:07 | 48.94093 | 12.38184 | 14818 ft | 342 kts | 189° |
| 2026-05-05 18:08 | 48.91755 | 12.37669 | 14222 ft | 338 kts | 189° |
| 2026-05-05 18:08 | 48.89442 | 12.37159 | 13636 ft | 334 kts | 190° |
| 2026-05-05 18:08 | 48.87155 | 12.36655 | 12981 ft | 330 kts | 190° |
| 2026-05-05 18:08 | 48.84897 | 12.36158 | 12318 ft | 327 kts | 190° |
| 2026-05-05 18:09 | 48.82652 | 12.35665 | 11672 ft | 325 kts | 190° |
| 2026-05-05 18:09 | 48.80418 | 12.35170 | 11125 ft | 325 kts | 190° |
| 2026-05-05 18:09 | 48.78237 | 12.34494 | 10849 ft | 313 kts | 194° |
| 2026-05-05 18:09 | 48.76176 | 12.33767 | 10799 ft | 295 kts | 195° |
| 2026-05-05 18:10 | 48.74246 | 12.33049 | 10793 ft | 279 kts | 196° |
| 2026-05-05 18:10 | 48.72380 | 12.32332 | 10797 ft | 276 kts | 197° |
| 2026-05-05 18:10 | 48.70520 | 12.31604 | 10802 ft | 276 kts | 197° |
| 2026-05-05 18:10 | 48.68665 | 12.30875 | 10810 ft | 276 kts | 197° |
| 2026-05-05 18:11 | 48.66806 | 12.30154 | 10805 ft | 276 kts | 196° |
| 2026-05-05 18:11 | 48.64902 | 12.29757 | 10808 ft | 278 kts | 186° |
| 2026-05-05 18:11 | 48.62963 | 12.29641 | 10763 ft | 279 kts | 184° |
| 2026-05-05 18:11 | 48.61032 | 12.29549 | 10490 ft | 276 kts | 184° |
| 2026-05-05 18:12 | 48.59122 | 12.29464 | 10223 ft | 274 kts | 184° |
| 2026-05-05 18:12 | 48.57221 | 12.29383 | 9934 ft | 272 kts | 184° |
| 2026-05-05 18:12 | 48.55338 | 12.29307 | 9630 ft | 270 kts | 184° |
| 2026-05-05 18:12 | 48.53465 | 12.29233 | 9343 ft | 269 kts | 184° |
| 2026-05-05 18:13 | 48.51605 | 12.29159 | 9072 ft | 264 kts | 184° |
| 2026-05-05 18:13 | 48.49797 | 12.29090 | 8814 ft | 257 kts | 184° |
| 2026-05-05 18:13 | 48.48015 | 12.29015 | 8549 ft | 256 kts | 184° |
| 2026-05-05 18:13 | 48.46264 | 12.28936 | 8389 ft | 251 kts | 184° |
| 2026-05-05 18:14 | 48.44522 | 12.28863 | 8235 ft | 250 kts | 184° |
| 2026-05-05 18:14 | 48.42784 | 12.28797 | 8082 ft | 249 kts | 184° |
| 2026-05-05 18:14 | 48.41072 | 12.28551 | 7919 ft | 246 kts | 198° |
| 2026-05-05 18:14 | 48.39626 | 12.27269 | 7741 ft | 242 kts | 225° |
| 2026-05-05 18:15 | 48.38585 | 12.25314 | 7525 ft | 239 kts | 240° |
| 2026-05-05 18:15 | 48.38137 | 12.23809 | 7375 ft | 238 kts | 249° |
| 2026-05-05 18:15 | 48.37702 | 12.21428 | 7087 ft | 235 kts | 257° |
| 2026-05-05 18:15 | 48.37445 | 12.18999 | 6718 ft | 235 kts | 262° |
| 2026-05-05 18:16 | 48.37261 | 12.16553 | 6370 ft | 236 kts | 262° |
| 2026-05-05 18:16 | 48.37081 | 12.14105 | 6000 ft | 236 kts | 263° |
| 2026-05-05 18:16 | 48.36893 | 12.11665 | 5624 ft | 234 kts | 263° |
| 2026-05-05 18:16 | 48.36697 | 12.09242 | 5226 ft | 230 kts | 263° |
| 2026-05-05 18:17 | 48.36501 | 12.06914 | 4892 ft | 218 kts | 264° |
| 2026-05-05 18:17 | 48.36328 | 12.04679 | 4624 ft | 214 kts | 265° |
| 2026-05-05 18:17 | 48.36165 | 12.02487 | 4355 ft | 209 kts | 265° |
| 2026-05-05 18:17 | 48.36002 | 12.00360 | 4094 ft | 200 kts | 265° |
| 2026-05-05 18:18 | 48.35847 | 11.98357 | 3821 ft | 186 kts | 265° |
| 2026-05-05 18:18 | 48.35704 | 11.96486 | 3564 ft | 175 kts | 266° |
| 2026-05-05 18:18 | 48.35568 | 11.94706 | 3353 ft | 169 kts | 266° |
| 2026-05-05 18:18 | 48.35435 | 11.92959 | 3136 ft | 167 kts | 266° |
| 2026-05-05 18:19 | 48.35306 | 11.91285 | 2914 ft | 156 kts | 266° |
| 2026-05-05 18:19 | 48.35186 | 11.89730 | 2710 ft | 144 kts | 266° |
| 2026-05-05 18:19 | 48.35076 | 11.88293 | 2525 ft | 134 kts | 267° |
| 2026-05-05 18:19 | 48.34971 | 11.86899 | 2356 ft | 134 kts | 265° |
| 2026-05-05 18:20 | 48.34861 | 11.85511 | 2143 ft | 134 kts | 263° |
| 2026-05-05 18:20 | 48.34756 | 11.84107 | 1956 ft | 136 kts | 265° |
| 2026-05-05 18:20 | 48.34648 | 11.82683 | 1786 ft | 138 kts | 264° |
| 2026-05-05 18:20 | 48.34539 | 11.81256 | 1626 ft | 137 kts | 264° |
| 2026-05-05 18:21 | 48.34431 | 11.79832 | 1485 ft | 135 kts | 264° |
| 2026-05-05 18:21 | 48.34340 | 11.78622 | 1482 ft | 93 kts | 262° |
| 2026-05-05 18:21 | 48.34283 | 11.77900 | 1492 ft | 49 kts | 263° |
| 2026-05-05 18:21 | 48.34252 | 11.77416 | 1481 ft | 41 kts | 271° |
| 2026-05-05 18:22 | 48.34306 | 11.77097 | 1480 ft | 28 kts | 293° |
| 2026-05-05 18:22 | 48.34358 | 11.76914 | 1480 ft | 19 kts | 293° |
| 2026-05-05 18:22 | 48.34415 | 11.76737 | 1476 ft | 15 kts | 312° |
| 2026-05-05 18:22 | 48.34516 | 11.76694 | 1484 ft | 15 kts | 354° |
| 2026-05-05 18:23 | 48.34576 | 11.76762 | 1482 ft | 12 kts | 84° |
| 2026-05-05 18:23 | 48.34586 | 11.76901 | 1483 ft | 15 kts | 84° |
| 2026-05-05 18:23 | 48.34599 | 11.77072 | 1485 ft | 18 kts | 83° |
| 2026-05-05 18:23 | 48.34615 | 11.77270 | 1483 ft | 21 kts | 83° |
| 2026-05-05 18:24 | 48.34633 | 11.77497 | 1484 ft | 23 kts | 83° |
| 2026-05-05 18:24 | 48.34652 | 11.77744 | 1480 ft | 24 kts | 83° |
| 2026-05-05 18:24 | 48.34672 | 11.77999 | 1492 ft | 25 kts | 83° |
| 2026-05-05 18:24 | 48.34692 | 11.78272 | 1487 ft | 27 kts | 84° |
| 2026-05-05 18:25 | 48.34713 | 11.78540 | 1479 ft | 21 kts | 84° |
| 2026-05-05 18:25 | 48.34725 | 11.78694 | 1476 ft | 23 kts | 83° |
| 2026-05-05 18:25 | 48.34750 | 11.79020 | 1487 ft | 22 kts | 83° |
| 2026-05-05 18:25 | 48.34766 | 11.79224 | 1485 ft | 18 kts | 83° |
| 2026-05-05 18:26 | 48.34778 | 11.79376 | 1485 ft | 15 kts | 83° |
| 2026-05-05 18:26 | 48.34789 | 11.79527 | 1484 ft | 13 kts | 83° |
| 2026-05-05 18:26 | 48.34796 | 11.79613 | 1478 ft | 6 kts | 83° |
| 2026-05-05 18:26 | 48.34806 | 11.79681 | 1485 ft | 3 kts | 55° |
| 2026-05-05 18:27 | 48.34824 | 11.79690 | 1476 ft | 4 kts | 18° |
| 2026-05-05 18:27 | 48.34863 | 11.79692 | 1481 ft | 7 kts | 354° |
| 2026-05-05 18:27 | 48.34924 | 11.79683 | 1483 ft | 10 kts | 353° |
| 2026-05-05 18:27 | 48.34996 | 11.79670 | 1479 ft | 12 kts | 353° |
| 2026-05-05 18:28 | 48.35160 | 11.79641 | 1478 ft | 9 kts | 353° |
| 2026-05-05 18:28 | 48.35209 | 11.79633 | 1479 ft | 0 kts | 354° |
| 2026-05-05 18:28 | 48.35218 | 11.79636 | 1476 ft | 3 kts | 15° |
| 2026-05-05 18:29 | 48.35238 | 11.79681 | 1476 ft | 6 kts | 76° |
| 2026-05-05 18:29 | 48.35243 | 11.79746 | 1479 ft | 5 kts | 83° |
| 2026-05-05 18:29 | 48.35245 | 11.79767 | 1486 ft | 0 kts | 83° |